Time;durP1;ratioP1;P1;durP2;ratioP2;P2;SDS_P1;SDS_P2;PMS_P1;PMS_P2;Temp;Humidity;BMP_temperature;BMP_pressure;BME280_temperature;BME280_humidity;BME280_pressure;Samples;Min_cycle;Max_cycle;Signal;HPM_P1;HPM_P2
2022/01/09 00:00:36;;;;;;;;;;;19.70;57.70;;;;;;5042596;28;1129;-70
2022/01/09 00:03:01;;;;;;;;;;;19.70;57.70;;;;;;5045680;28;1400;-69
2022/01/09 00:05:26;;;;;;;;;;;19.70;57.70;;;;;;5043898;28;1206;-69
2022/01/09 00:07:53;;;;;;;;;;;19.70;57.70;;;;;;5050289;28;1304;-70
2022/01/09 00:10:19;;;;;;;;;;;19.70;57.70;;;;;;5063105;28;1094;-69
2022/01/09 00:12:44;;;;;;;;;;;19.70;57.70;;;;;;5071846;28;1352;-69
2022/01/09 00:15:09;;;;;;;;;;;19.70;57.80;;;;;;5060278;28;1358;-69
2022/01/09 00:17:35;;;;;;;;;;;19.60;57.70;;;;;;5050726;28;1902;-69
2022/01/09 00:20:00;;;;;;;;;;;19.60;57.70;;;;;;5052052;28;1329;-69
2022/01/09 00:22:37;;;;;;;;;;;19.60;57.70;;;;;;5050291;28;1372;-70
2022/01/09 00:25:03;;;;;;;;;;;19.60;57.80;;;;;;5050835;28;1253;-70
2022/01/09 00:27:28;;;;;;;;;;;19.60;57.80;;;;;;5051375;28;1284;-70
2022/01/09 00:29:54;;;;;;;;;;;19.60;57.80;;;;;;5051710;28;1383;-70
2022/01/09 00:32:19;;;;;;;;;;;19.60;57.80;;;;;;5050332;28;1311;-70
2022/01/09 00:34:45;;;;;;;;;;;19.60;57.80;;;;;;5050927;28;1240;-70
2022/01/09 00:37:10;;;;;;;;;;;19.60;57.80;;;;;;5051835;28;1942;-70
2022/01/09 00:39:35;;;;;;;;;;;19.60;57.90;;;;;;5051507;28;1351;-69
2022/01/09 00:42:01;;;;;;;;;;;19.60;57.90;;;;;;5052159;28;1494;-69
2022/01/09 00:44:26;;;;;;;;;;;19.60;57.90;;;;;;5052108;28;1039;-69
2022/01/09 00:46:53;;;;;;;;;;;19.60;57.90;;;;;;5051952;28;1476;-70
2022/01/09 00:49:18;;;;;;;;;;;19.60;57.90;;;;;;5051501;28;1117;-70
2022/01/09 00:51:44;;;;;;;;;;;19.60;57.90;;;;;;5051602;28;1373;-69
2022/01/09 00:54:09;;;;;;;;;;;19.50;57.90;;;;;;5050246;28;1311;-70
2022/01/09 00:56:34;;;;;;;;;;;19.50;57.90;;;;;;5050930;28;1921;-70
2022/01/09 00:59:00;;;;;;;;;;;19.50;57.90;;;;;;5051563;28;1327;-69
2022/01/09 01:01:25;;;;;;;;;;;19.60;58.00;;;;;;5052405;28;1178;-69
2022/01/09 01:03:51;;;;;;;;;;;19.50;58.00;;;;;;5054461;28;1082;-69
2022/01/09 01:06:16;;;;;;;;;;;19.50;58.00;;;;;;5055134;28;1853;-69
2022/01/09 01:08:42;;;;;;;;;;;19.50;58.00;;;;;;5054843;28;1349;-69
2022/01/09 01:11:09;;;;;;;;;;;19.60;58.00;;;;;;5072411;28;1145;-69
2022/01/09 01:13:35;;;;;;;;;;;19.50;58.00;;;;;;5075088;28;1346;-69
2022/01/09 01:16:00;;;;;;;;;;;19.60;58.00;;;;;;5056239;28;1957;-69
2022/01/09 01:18:25;;;;;;;;;;;19.50;58.00;;;;;;5054669;28;1254;-69
2022/01/09 01:20:51;;;;;;;;;;;19.50;58.00;;;;;;5054215;28;1333;-70
2022/01/09 01:23:16;;;;;;;;;;;19.50;58.00;;;;;;5053893;28;1389;-69
2022/01/09 01:25:44;;;;;;;;;;;19.50;58.00;;;;;;5054177;28;1267;-70
2022/01/09 01:28:10;;;;;;;;;;;19.50;58.00;;;;;;5054471;28;1324;-69
2022/01/09 01:30:35;;;;;;;;;;;19.50;58.30;;;;;;5053089;28;1071;-70
2022/01/09 01:33:00;;;;;;;;;;;19.50;58.00;;;;;;5054022;28;1314;-69
2022/01/09 01:35:26;;;;;;;;;;;19.50;58.00;;;;;;5054591;28;1910;-70
2022/01/09 01:37:51;;;;;;;;;;;19.50;58.00;;;;;;5054634;28;996;-70
2022/01/09 01:40:18;;;;;;;;;;;19.50;58.10;;;;;;5053502;28;1324;-70
2022/01/09 01:42:43;;;;;;;;;;;19.50;58.00;;;;;;5054346;28;1103;-70
2022/01/09 01:45:09;;;;;;;;;;;19.50;58.00;;;;;;5052713;28;1322;-70
2022/01/09 01:47:34;;;;;;;;;;;19.50;58.00;;;;;;5054621;28;1312;-70
2022/01/09 01:50:00;;;;;;;;;;;19.50;58.00;;;;;;5054566;28;1072;-70
2022/01/09 01:52:31;;;;;;;;;;;19.50;58.00;;;;;;5053538;28;1327;-70
2022/01/09 01:54:57;;;;;;;;;;;19.50;58.00;;;;;;5053890;28;1226;-70
2022/01/09 01:57:22;;;;;;;;;;;19.50;58.00;;;;;;5053860;28;1902;-70
2022/01/09 01:59:47;;;;;;;;;;;19.50;58.00;;;;;;5052786;28;1272;-70
2022/01/09 02:02:13;;;;;;;;;;;19.50;58.10;;;;;;5053854;28;1232;-70
2022/01/09 02:04:39;;;;;;;;;;;19.50;58.10;;;;;;5052699;28;1381;-70
2022/01/09 02:07:05;;;;;;;;;;;19.50;58.00;;;;;;5052405;28;1313;-70
2022/01/09 02:09:30;;;;;;;;;;;19.50;58.10;;;;;;5057806;28;1294;-70
2022/01/09 02:11:56;;;;;;;;;;;19.50;58.10;;;;;;5074590;28;1312;-70
2022/01/09 02:14:22;;;;;;;;;;;19.50;58.10;;;;;;5083452;28;1383;-70
2022/01/09 02:16:51;;;;;;;;;;;19.50;58.10;;;;;;5052215;28;1969;-70
2022/01/09 02:19:19;;;;;;;;;;;19.50;58.10;;;;;;5053716;28;1059;-69
2022/01/09 02:21:45;;;;;;;;;;;19.50;58.10;;;;;;5052261;28;1398;-69
2022/01/09 02:24:10;;;;;;;;;;;19.50;58.10;;;;;;5051273;28;1439;-69
2022/01/09 02:26:36;;;;;;;;;;;19.50;58.10;;;;;;5053002;28;1395;-70
2022/01/09 02:29:01;;;;;;;;;;;19.40;58.10;;;;;;5052862;28;1327;-70
2022/01/09 02:31:26;;;;;;;;;;;19.50;58.10;;;;;;5053581;28;1272;-70
2022/01/09 02:33:52;;;;;;;;;;;19.50;58.10;;;;;;5051278;28;1064;-70
2022/01/09 02:36:17;;;;;;;;;;;19.50;58.10;;;;;;5053428;28;1894;-70
2022/01/09 02:38:43;;;;;;;;;;;19.50;58.10;;;;;;5052769;28;1312;-69
2022/01/09 02:41:08;;;;;;;;;;;19.40;58.10;;;;;;5052921;28;1382;-69
2022/01/09 02:43:34;;;;;;;;;;;19.40;58.10;;;;;;5052333;28;1297;-70
2022/01/09 02:46:17;;;;;;;;;;;19.40;58.10;;;;;;5053248;28;1303;-70
2022/01/09 02:48:43;;;;;;;;;;;19.40;58.10;;;;;;5053069;28;967;-69
2022/01/09 02:51:17;;;;;;;;;;;19.40;58.10;;;;;;5045995;28;1944;-70
2022/01/09 02:53:45;;;;;;;;;;;19.40;58.10;;;;;;5071987;28;1303;-69
2022/01/09 02:56:10;;;;;;;;;;;19.40;58.10;;;;;;5072996;28;1965;-70
2022/01/09 02:58:37;;;;;;;;;;;19.50;58.20;;;;;;5071994;28;1321;-69
2022/01/09 03:01:03;;;;;;;;;;;19.40;58.10;;;;;;5069234;28;1402;-69
2022/01/09 03:03:29;;;;;;;;;;;19.40;58.10;;;;;;5052230;28;1268;-69
2022/01/09 03:05:54;;;;;;;;;;;19.40;58.10;;;;;;5052491;28;1378;-69
2022/01/09 03:08:19;;;;;;;;;;;19.40;58.20;;;;;;5052995;28;1315;-70
2022/01/09 03:10:45;;;;;;;;;;;19.40;58.20;;;;;;5068129;28;1265;-70
2022/01/09 03:13:10;;;;;;;;;;;19.40;58.10;;;;;;5070767;28;1117;-69
2022/01/09 03:15:36;;;;;;;;;;;19.40;58.10;;;;;;5046452;28;2021;-69
2022/01/09 03:18:01;;;;;;;;;;;19.40;58.20;;;;;;5047612;28;1235;-71
2022/01/09 03:20:27;;;;;;;;;;;19.40;58.10;;;;;;5044217;28;1171;-71
2022/01/09 03:22:54;;;;;;;;;;;19.40;58.20;;;;;;5042202;28;1563;-70
2022/01/09 03:25:20;;;;;;;;;;;19.40;58.10;;;;;;5058900;28;1322;-70
2022/01/09 03:27:45;;;;;;;;;;;19.40;58.20;;;;;;5045684;28;1184;-69
2022/01/09 03:30:11;;;;;;;;;;;19.40;58.10;;;;;;5045531;28;1321;-69
2022/01/09 03:32:37;;;;;;;;;;;19.40;58.10;;;;;;5072665;28;1917;-69
2022/01/09 03:35:03;;;;;;;;;;;19.40;58.20;;;;;;5070292;28;1130;-69
2022/01/09 03:37:28;;;;;;;;;;;19.40;58.10;;;;;;5072602;28;1902;-69
2022/01/09 03:39:54;;;;;;;;;;;19.40;58.10;;;;;;5072574;28;1380;-69
2022/01/09 03:42:19;;;;;;;;;;;19.40;58.10;;;;;;5072809;28;1285;-69
2022/01/09 03:44:45;;;;;;;;;;;19.40;58.10;;;;;;5071802;28;1244;-69
2022/01/09 03:47:10;;;;;;;;;;;19.40;58.10;;;;;;5072713;28;1307;-69
2022/01/09 03:49:35;;;;;;;;;;;19.40;58.10;;;;;;5071206;28;1478;-69
2022/01/09 03:52:01;;;;;;;;;;;19.40;58.10;;;;;;5073038;28;1063;-69
2022/01/09 03:54:26;;;;;;;;;;;19.40;58.00;;;;;;5071355;28;1282;-69
2022/01/09 03:56:52;;;;;;;;;;;19.50;58.10;;;;;;5072449;28;1965;-69
2022/01/09 03:59:17;;;;;;;;;;;19.40;58.00;;;;;;5072292;28;1319;-69
2022/01/09 04:01:43;;;;;;;;;;;19.40;58.00;;;;;;5062927;28;1318;-69
2022/01/09 04:04:08;;;;;;;;;;;19.50;58.10;;;;;;5050365;28;1336;-69
2022/01/09 04:06:34;;;;;;;;;;;19.40;58.00;;;;;;5052362;28;1329;-69
2022/01/09 04:09:08;;;;;;;;;;;19.40;58.00;;;;;;5053064;28;1331;-69
2022/01/09 04:11:38;;;;;;;;;;;19.40;58.60;;;;;;5071986;28;1328;-69
2022/01/09 04:14:04;;;;;;;;;;;19.40;58.00;;;;;;5067586;28;1309;-69
2022/01/09 04:16:29;;;;;;;;;;;19.40;58.00;;;;;;5052024;28;2030;-69
2022/01/09 04:18:54;;;;;;;;;;;19.40;58.00;;;;;;5052161;28;1130;-69
2022/01/09 04:21:20;;;;;;;;;;;19.40;58.10;;;;;;5051882;28;1324;-69
2022/01/09 04:23:45;;;;;;;;;;;19.40;58.00;;;;;;5051454;28;1340;-69
2022/01/09 04:26:11;;;;;;;;;;;19.40;58.10;;;;;;5075921;22;1946;-74
2022/01/09 04:28:36;;;;;;;;;;;19.40;58.10;;;;;;5072046;28;1541;-67
2022/01/09 04:31:02;;;;;;;;;;;19.40;58.10;;;;;;5081347;28;1028;-67
2022/01/09 04:33:27;;;;;;;;;;;19.40;58.10;;;;;;5078278;28;1447;-70
2022/01/09 04:35:52;;;;;;;;;;;19.40;58.10;;;;;;5084541;28;1976;-68
2022/01/09 04:38:18;;;;;;;;;;;19.40;58.10;;;;;;5076568;28;1220;-67
2022/01/09 04:40:43;;;;;;;;;;;19.40;58.10;;;;;;5076533;28;1368;-69
2022/01/09 04:43:10;;;;;;;;;;;19.40;58.10;;;;;;5076427;28;1316;-67
2022/01/09 04:45:36;;;;;;;;;;;19.40;58.20;;;;;;5076702;28;855;-68
2022/01/09 04:48:05;;;;;;;;;;;19.40;58.20;;;;;;5076518;28;1276;-68
2022/01/09 04:50:33;;;;;;;;;;;19.40;58.20;;;;;;5058200;28;1049;-68
2022/01/09 04:53:01;;;;;;;;;;;19.40;58.20;;;;;;5058445;28;1183;-68
2022/01/09 04:55:27;;;;;;;;;;;19.30;58.20;;;;;;5058680;28;1954;-67
2022/01/09 04:57:52;;;;;;;;;;;19.30;58.20;;;;;;5058101;28;1613;-67
2022/01/09 05:00:18;;;;;;;;;;;19.30;58.20;;;;;;5057917;28;1712;-68
2022/01/09 05:02:43;;;;;;;;;;;19.40;58.20;;;;;;5044906;28;1578;-68
2022/01/09 05:05:09;;;;;;;;;;;19.40;58.20;;;;;;5075364;28;1088;-69
2022/01/09 05:07:35;;;;;;;;;;;19.30;58.20;;;;;;5062446;28;1511;-70
2022/01/09 05:10:00;;;;;;;;;;;19.40;58.20;;;;;;5058100;28;1017;-69
2022/01/09 05:12:25;;;;;;;;;;;19.40;58.20;;;;;;5076085;28;1036;-69
2022/01/09 05:14:51;;;;;;;;;;;19.40;58.20;;;;;;5075109;28;894;-68
2022/01/09 05:17:16;;;;;;;;;;;19.40;58.10;;;;;;5075682;28;1909;-70
2022/01/09 05:19:43;;;;;;;;;;;19.50;58.10;;;;;;5075926;28;970;-70
2022/01/09 05:22:08;;;;;;;;;;;19.50;58.00;;;;;;5075791;28;992;-70
2022/01/09 05:24:34;;;;;;;;;;;19.50;57.90;;;;;;5075099;28;976;-70
2022/01/09 05:27:00;;;;;;;;;;;19.60;57.80;;;;;;5075554;28;1365;-69
2022/01/09 05:29:25;;;;;;;;;;;19.60;57.70;;;;;;5075566;28;1020;-68
2022/01/09 05:31:51;;;;;;;;;;;19.60;57.60;;;;;;5057005;28;1688;-69
2022/01/09 05:34:16;;;;;;;;;;;19.70;57.40;;;;;;5074909;28;798;-69
2022/01/09 05:36:42;;;;;;;;;;;19.70;57.30;;;;;;5057623;28;1926;-70
2022/01/09 05:39:07;;;;;;;;;;;19.80;57.30;;;;;;5075622;28;738;-67
2022/01/09 05:41:32;;;;;;;;;;;19.80;57.20;;;;;;5075590;28;796;-68
2022/01/09 05:43:58;;;;;;;;;;;19.80;57.10;;;;;;5037725;28;1036;-70
2022/01/09 05:46:23;;;;;;;;;;;19.80;57.00;;;;;;5051757;28;1275;-69
2022/01/09 05:48:49;;;;;;;;;;;19.90;57.60;;;;;;5056387;28;1108;-69
2022/01/09 05:51:14;;;;;;;;;;;19.90;56.90;;;;;;5075272;28;934;-70
2022/01/09 05:53:39;;;;;;;;;;;19.90;56.90;;;;;;5074760;28;1103;-68
2022/01/09 05:56:05;;;;;;;;;;;19.90;56.80;;;;;;5074965;28;1893;-69
2022/01/09 05:58:31;;;;;;;;;;;19.90;56.80;;;;;;5057170;28;1711;-70
2022/01/09 06:00:56;;;;;;;;;;;19.90;56.80;;;;;;5073048;28;1158;-68
2022/01/09 06:03:22;;;;;;;;;;;20.00;56.80;;;;;;5061828;28;1632;-68
2022/01/09 06:05:47;;;;;;;;;;;19.90;56.70;;;;;;5075205;28;902;-68
2022/01/09 06:08:12;;;;;;;;;;;19.90;56.70;;;;;;5075241;28;1187;-67
2022/01/09 06:10:38;;;;;;;;;;;20.00;56.80;;;;;;5074715;28;1162;-67
2022/01/09 06:13:03;;;;;;;;;;;20.00;57.30;;;;;;5074022;28;1374;-67
2022/01/09 06:15:29;;;;;;;;;;;19.90;56.70;;;;;;5074301;28;1913;-67
2022/01/09 06:17:54;;;;;;;;;;;20.00;56.80;;;;;;5074643;28;1659;-68
2022/01/09 06:20:20;;;;;;;;;;;19.90;56.70;;;;;;5074405;28;1334;-68
2022/01/09 06:22:45;;;;;;;;;;;20.00;56.80;;;;;;5056857;28;1337;-68
2022/01/09 06:25:10;;;;;;;;;;;19.90;56.70;;;;;;5074178;28;1366;-68
2022/01/09 06:27:36;;;;;;;;;;;19.90;56.70;;;;;;5074201;28;1200;-69
2022/01/09 06:30:04;;;;;;;;;;;19.90;56.80;;;;;;5055902;28;1318;-70
2022/01/09 06:32:31;;;;;;;;;;;19.90;56.70;;;;;;5073038;28;1170;-70
2022/01/09 06:34:56;;;;;;;;;;;20.00;56.80;;;;;;5073154;28;898;-67
2022/01/09 06:37:22;;;;;;;;;;;19.90;56.70;;;;;;5074310;28;1923;-71
2022/01/09 06:39:47;;;;;;;;;;;20.00;56.80;;;;;;5074341;28;929;-69
2022/01/09 06:42:12;;;;;;;;;;;20.00;56.80;;;;;;5074370;28;1087;-69
2022/01/09 06:44:38;;;;;;;;;;;19.90;56.70;;;;;;5036158;28;820;-70
2022/01/09 06:47:03;;;;;;;;;;;19.90;56.80;;;;;;5074226;28;1342;-69
2022/01/09 06:49:29;;;;;;;;;;;20.00;56.80;;;;;;5074300;28;771;-69
2022/01/09 06:51:54;;;;;;;;;;;19.90;56.80;;;;;;5073821;28;1448;-69
2022/01/09 06:54:20;;;;;;;;;;;19.90;56.70;;;;;;5072980;28;1501;-68
2022/01/09 06:56:45;;;;;;;;;;;20.00;56.80;;;;;;5073684;28;1902;-69
2022/01/09 06:59:11;;;;;;;;;;;19.90;56.70;;;;;;5072943;28;1381;-73
2022/01/09 07:01:36;;;;;;;;;;;19.90;56.70;;;;;;5073595;28;1430;-67
2022/01/09 07:04:01;;;;;;;;;;;19.90;56.70;;;;;;5073051;28;1384;-68
2022/01/09 07:06:27;;;;;;;;;;;19.90;56.70;;;;;;5073582;28;1620;-71
2022/01/09 07:08:52;;;;;;;;;;;19.90;56.70;;;;;;5055230;28;1659;-67
2022/01/09 07:11:18;;;;;;;;;;;19.90;56.70;;;;;;5055410;28;894;-68
2022/01/09 07:13:43;;;;;;;;;;;19.90;56.70;;;;;;5072540;28;1052;-70
2022/01/09 07:16:09;;;;;;;;;;;19.90;56.70;;;;;;5055176;28;1906;-67
2022/01/09 07:18:34;;;;;;;;;;;19.90;56.70;;;;;;5055107;28;1033;-73
2022/01/09 07:20:59;;;;;;;;;;;19.90;56.70;;;;;;5038797;28;1450;-70
2022/01/09 07:23:25;;;;;;;;;;;19.90;56.70;;;;;;5055432;28;1033;-68
2022/01/09 07:25:50;;;;;;;;;;;19.90;56.70;;;;;;5055715;28;1017;-69
2022/01/09 07:28:16;;;;;;;;;;;19.90;56.70;;;;;;5072766;28;1368;-69
2022/01/09 07:30:41;;;;;;;;;;;19.90;56.80;;;;;;5055049;28;1383;-69
2022/01/09 07:33:07;;;;;;;;;;;19.90;56.80;;;;;;5054238;28;1658;-70
2022/01/09 07:35:32;;;;;;;;;;;19.90;56.80;;;;;;5054621;28;1961;-70
2022/01/09 07:37:59;;;;;;;;;;;19.90;56.80;;;;;;5055164;28;1310;-70
2022/01/09 07:40:24;;;;;;;;;;;19.90;56.80;;;;;;5072891;28;1702;-70
2022/01/09 07:42:49;;;;;;;;;;;19.90;56.80;;;;;;5054531;28;1700;-68
2022/01/09 07:45:15;;;;;;;;;;;19.90;56.80;;;;;;5054275;28;1412;-69
2022/01/09 07:47:40;;;;;;;;;;;19.90;57.40;;;;;;5072743;28;1499;-69
2022/01/09 07:50:06;;;;;;;;;;;19.90;56.80;;;;;;5072840;28;1483;-70
2022/01/09 07:52:35;;;;;;;;;;;19.90;56.80;;;;;;5073113;28;1424;-71
2022/01/09 07:55:01;;;;;;;;;;;19.90;56.90;;;;;;5071844;28;1648;-70
2022/01/09 07:57:26;;;;;;;;;;;20.00;56.80;;;;;;5065298;28;1902;-68
2022/01/09 07:59:52;;;;;;;;;;;20.00;56.70;;;;;;5072419;28;1375;-70
2022/01/09 08:02:17;;;;;;;;;;;20.20;56.60;;;;;;5062047;28;2129;-68
2022/01/09 08:04:43;;;;;;;;;;;20.30;56.50;;;;;;5049535;28;2028;-68
2022/01/09 08:07:08;;;;;;;;;;;20.40;56.30;;;;;;5072304;28;1432;-69
2022/01/09 08:09:33;;;;;;;;;;;20.50;56.10;;;;;;5067220;28;1613;-67
2022/01/09 08:11:59;;;;;;;;;;;20.60;55.80;;;;;;5041784;28;2286;-69
2022/01/09 08:14:24;;;;;;;;;;;20.80;55.60;;;;;;5068579;28;1663;-69
2022/01/09 08:16:50;;;;;;;;;;;20.90;55.90;;;;;;5072316;28;1902;-68
2022/01/09 08:19:15;;;;;;;;;;;21.00;55.00;;;;;;5054499;28;1434;-70
2022/01/09 08:21:40;;;;;;;;;;;21.10;54.70;;;;;;5072274;28;1676;-69
2022/01/09 08:24:06;;;;;;;;;;;21.10;54.50;;;;;;5071329;28;1667;-68
2022/01/09 08:26:31;;;;;;;;;;;21.30;54.30;;;;;;5072074;28;1275;-70
2022/01/09 08:28:57;;;;;;;;;;;21.30;54.10;;;;;;5054473;28;1451;-69
2022/01/09 08:31:22;;;;;;;;;;;21.40;54.00;;;;;;5072247;28;1426;-69
2022/01/09 08:33:48;;;;;;;;;;;21.50;53.80;;;;;;5071436;28;1448;-70
2022/01/09 08:36:13;;;;;;;;;;;21.50;53.60;;;;;;5053949;28;1902;-70
2022/01/09 08:38:39;;;;;;;;;;;21.60;53.60;;;;;;5072208;28;1436;-69
2022/01/09 08:41:04;;;;;;;;;;;21.70;53.50;;;;;;5054464;28;1741;-70
2022/01/09 08:43:31;;;;;;;;;;;21.70;53.40;;;;;;5036860;28;1716;-70
2022/01/09 08:45:56;;;;;;;;;;;21.80;53.90;;;;;;5054306;28;1679;-70
2022/01/09 08:48:22;;;;;;;;;;;21.70;53.20;;;;;;5072250;28;1417;-70
2022/01/09 08:50:47;;;;;;;;;;;21.80;53.20;;;;;;5071672;28;1390;-70
2022/01/09 08:53:13;;;;;;;;;;;21.80;53.70;;;;;;5071498;28;1386;-71
2022/01/09 08:55:38;;;;;;;;;;;21.80;53.10;;;;;;5054091;28;1890;-70
2022/01/09 08:58:04;;;;;;;;;;;21.80;53.10;;;;;;5071692;28;1662;-68
2022/01/09 09:00:29;;;;;;;;;;;21.80;53.20;;;;;;5072030;28;1634;-71
2022/01/09 09:02:55;;;;;;;;;;;21.80;53.20;;;;;;5057715;28;1264;-71
2022/01/09 09:05:20;;;;;;;;;;;21.80;53.30;;;;;;5071950;28;1654;-71
2022/01/09 09:07:46;;;;;;;;;;;21.90;53.30;;;;;;5054082;28;1572;-69
2022/01/09 09:10:13;;;;;;;;;;;21.80;53.40;;;;;;5072018;28;1483;-71
2022/01/09 09:12:38;;;;;;;;;;;21.80;53.40;;;;;;5071950;28;1693;-70
2022/01/09 09:15:04;;;;;;;;;;;21.80;53.40;;;;;;5053327;28;1300;-71
2022/01/09 09:17:29;;;;;;;;;;;21.80;53.40;;;;;;5072025;28;1906;-71
2022/01/09 09:19:55;;;;;;;;;;;21.80;53.40;;;;;;5053821;28;1454;-71
2022/01/09 09:22:20;;;;;;;;;;;21.80;53.40;;;;;;5072468;28;1639;-68
2022/01/09 09:24:46;;;;;;;;;;;21.80;53.40;;;;;;5074355;28;1297;-69
2022/01/09 09:27:11;;;;;;;;;;;21.80;53.40;;;;;;5075193;28;1374;-69
2022/01/09 09:29:36;;;;;;;;;;;21.70;53.40;;;;;;5075332;28;1412;-68
2022/01/09 09:32:02;;;;;;;;;;;21.70;53.40;;;;;;5074795;28;1359;-69
2022/01/09 09:34:28;;;;;;;;;;;21.70;53.40;;;;;;5073873;28;1672;-69
2022/01/09 09:36:53;;;;;;;;;;;21.70;53.50;;;;;;5057227;28;1906;-70
2022/01/09 09:39:19;;;;;;;;;;;21.70;53.50;;;;;;5075362;28;1294;-69
2022/01/09 09:41:44;;;;;;;;;;;21.70;53.60;;;;;;5074606;28;1392;-69
2022/01/09 09:44:10;;;;;;;;;;;21.60;53.60;;;;;;5056193;28;1366;-70
2022/01/09 09:46:35;;;;;;;;;;;21.60;53.70;;;;;;5074984;28;1290;-68
2022/01/09 09:49:01;;;;;;;;;;;21.60;53.80;;;;;;5075386;28;1117;-70
2022/01/09 09:51:29;;;;;;;;;;;21.50;53.80;;;;;;5074984;28;1335;-70
2022/01/09 09:53:54;;;;;;;;;;;21.50;53.80;;;;;;5073885;28;1671;-70
2022/01/09 09:56:20;;;;;;;;;;;21.50;53.90;;;;;;5056572;28;1949;-70
2022/01/09 09:58:47;;;;;;;;;;;21.50;54.00;;;;;;5075017;28;1370;-70
2022/01/09 10:01:22;;;;;;;;;;;21.50;54.10;;;;;;5074590;28;1335;-69
2022/01/09 10:03:52;;;;;;;;;;;21.40;54.10;;;;;;5056288;28;1331;-70
2022/01/09 10:06:36;;;;;;;;;;;21.40;54.10;;;;;;5057031;28;1569;-69
2022/01/09 10:09:15;;;;;;;;;;;21.40;54.10;;;;;;5057202;28;1772;-70
2022/01/09 10:12:04;;;;;;;;;;;21.40;54.20;;;;;;5074955;28;1564;-69
2022/01/09 10:14:30;;;;;;;;;;;21.40;54.30;;;;;;5057354;28;1355;-69
2022/01/09 10:17:16;;;;;;;;;;;21.30;54.30;;;;;;5056602;28;1965;-69
2022/01/09 10:19:44;;;;;;;;;;;21.30;54.30;;;;;;5074226;28;1623;-70
2022/01/09 10:22:28;;;;;;;;;;;21.30;54.40;;;;;;5074142;28;1667;-68
2022/01/09 10:24:55;;;;;;;;;;;21.30;55.00;;;;;;5073362;28;1353;-68
2022/01/09 10:27:27;;;;;;;;;;;21.30;54.50;;;;;;5078764;22;2027;-71
2022/01/09 10:29:53;;;;;;;;;;;21.20;54.50;;;;;;5066586;28;791;-69
2022/01/09 10:32:19;;;;;;;;;;;21.20;54.50;;;;;;5056575;28;1168;-69
2022/01/09 10:34:52;;;;;;;;;;;21.20;54.50;;;;;;5072935;28;905;-70
2022/01/09 10:37:17;;;;;;;;;;;21.20;54.60;;;;;;5073152;28;2007;-70
2022/01/09 10:39:44;;;;;;;;;;;21.20;54.70;;;;;;5073514;28;1064;-69
2022/01/09 10:42:09;;;;;;;;;;;21.10;54.70;;;;;;5073979;28;1074;-71
2022/01/09 10:44:35;;;;;;;;;;;21.10;54.70;;;;;;5072485;28;1284;-72
2022/01/09 10:47:05;;;;;;;;;;;21.10;54.70;;;;;;5057688;28;1271;-70
2022/01/09 10:49:37;;;;;;;;;;;21.10;54.70;;;;;;5063939;28;1210;-71
2022/01/09 10:52:20;;;;;;;;;;;21.10;54.80;;;;;;5054282;28;1231;-71
2022/01/09 10:54:46;;;;;;;;;;;21.10;54.80;;;;;;5061700;28;1122;-68
2022/01/09 10:57:13;;;;;;;;;;;21.10;54.80;;;;;;5064731;28;1969;-70
2022/01/09 10:59:39;;;;;;;;;;;21.10;54.90;;;;;;5066189;28;1432;-70
2022/01/09 11:02:04;;;;;;;;;;;21.10;54.80;;;;;;5063831;28;1267;-70
2022/01/09 11:04:30;;;;;;;;;;;21.10;54.80;;;;;;5063727;28;1263;-72
2022/01/09 11:06:55;;;;;;;;;;;21.10;54.70;;;;;;5063950;28;1385;-69
2022/01/09 11:09:22;;;;;;;;;;;21.20;54.80;;;;;;5064072;28;1399;-68
2022/01/09 11:11:48;;;;;;;;;;;21.20;54.70;;;;;;5060191;28;1481;-68
2022/01/09 11:14:17;;;;;;;;;;;21.20;54.70;;;;;;5064170;28;1286;-69
2022/01/09 11:16:51;;;;;;;;;;;21.20;54.70;;;;;;5062519;28;1977;-71
2022/01/09 11:19:17;;;;;;;;;;;21.20;54.70;;;;;;5063512;28;1593;-71
2022/01/09 11:21:46;;;;;;;;;;;21.20;54.60;;;;;;5063218;28;1252;-69
2022/01/09 11:24:14;;;;;;;;;;;21.20;54.60;;;;;;5063294;28;1104;-70
2022/01/09 11:26:58;;;;;;;;;;;21.20;54.60;;;;;;5063060;28;1275;-70
2022/01/09 11:29:30;;;;;;;;;;;21.20;54.60;;;;;;5065721;28;1250;-70
2022/01/09 11:32:15;;;;;;;;;;;21.20;54.70;;;;;;5062909;28;1282;-69
2022/01/09 11:34:55;;;;;;;;;;;21.10;54.70;;;;;;5055671;28;1243;-70
2022/01/09 11:37:40;;;;;;;;;;;21.20;54.80;;;;;;5059505;28;1913;-70
2022/01/09 11:40:19;;;;;;;;;;;21.10;55.30;;;;;;5071954;28;870;-70
2022/01/09 11:43:14;;;;;;;;;;;21.10;54.70;;;;;;5072473;28;915;-71
2022/01/09 11:45:55;;;;;;;;;;;21.10;54.70;;;;;;5053210;28;1108;-69
2022/01/09 11:48:40;;;;;;;;;;;21.10;54.80;;;;;;5073063;28;1610;-69
2022/01/09 11:51:05;;;;;;;;;;;21.10;54.90;;;;;;5071399;28;1357;-69
2022/01/09 11:53:49;;;;;;;;;;;21.10;54.90;;;;;;5071260;28;1373;-69
2022/01/09 11:56:19;;;;;;;;;;;21.10;55.00;;;;;;5072627;28;1898;-69
2022/01/09 11:58:46;;;;;;;;;;;21.10;55.00;;;;;;5071349;28;1618;-71
2022/01/09 12:01:31;;;;;;;;;;;21.10;55.00;;;;;;5068175;28;1493;-70
2022/01/09 12:03:57;;;;;;;;;;;21.00;55.00;;;;;;5059853;28;1369;-70
2022/01/09 12:06:29;;;;;;;;;;;21.00;55.00;;;;;;5071301;28;1718;-70
2022/01/09 12:09:00;;;;;;;;;;;21.00;55.00;;;;;;5071288;28;1611;-70
2022/01/09 12:11:52;;;;;;;;;;;21.00;55.00;;;;;;5068898;28;1293;-70
2022/01/09 12:14:37;;;;;;;;;;;21.10;55.00;;;;;;5044743;28;1425;-70
2022/01/09 12:17:03;;;;;;;;;;;21.10;55.00;;;;;;5072168;28;1898;-70
2022/01/09 12:19:47;;;;;;;;;;;21.10;54.90;;;;;;5069785;28;1516;-70
2022/01/09 12:22:12;;;;;;;;;;;21.10;54.90;;;;;;5062900;28;2005;-70
2022/01/09 12:24:42;;;;;;;;;;;21.20;54.90;;;;;;5043427;28;1339;-70
2022/01/09 12:27:26;;;;;;;;;;;21.20;54.80;;;;;;5061201;28;1435;-70
2022/01/09 12:29:52;;;;;;;;;;;21.20;54.80;;;;;;5063215;28;1390;-71
2022/01/09 12:32:36;;;;;;;;;;;21.20;54.70;;;;;;5070869;28;1301;-70
2022/01/09 12:35:19;;;;;;;;;;;21.20;54.70;;;;;;5065609;28;1657;-70
2022/01/09 12:38:00;;;;;;;;;;;21.30;54.70;;;;;;5066968;28;1905;-70
2022/01/09 12:40:32;;;;;;;;;;;21.30;54.60;;;;;;5065347;28;1387;-70
2022/01/09 12:42:57;;;;;;;;;;;21.30;54.60;;;;;;5062275;28;1312;-71
2022/01/09 12:45:23;;;;;;;;;;;21.30;54.60;;;;;;5060519;28;1181;-70
2022/01/09 12:47:49;;;;;;;;;;;21.30;54.60;;;;;;5070675;28;1302;-70
2022/01/09 12:50:14;;;;;;;;;;;21.30;54.60;;;;;;5049323;28;1300;-71
2022/01/09 12:52:40;;;;;;;;;;;21.30;54.60;;;;;;5044816;28;1775;-70
2022/01/09 12:55:06;;;;;;;;;;;21.20;54.60;;;;;;5060504;28;1514;-70
2022/01/09 12:57:48;;;;;;;;;;;21.20;54.60;;;;;;5067182;28;1938;-69
2022/01/09 13:00:14;;;;;;;;;;;21.20;54.60;;;;;;5066051;28;1477;-71
2022/01/09 13:02:39;;;;;;;;;;;21.20;54.70;;;;;;5067816;28;1129;-70
2022/01/09 13:05:05;;;;;;;;;;;21.20;54.70;;;;;;5074211;28;1362;-70
2022/01/09 13:07:30;;;;;;;;;;;21.20;54.80;;;;;;5075827;28;1479;-71
2022/01/09 13:09:56;;;;;;;;;;;21.10;54.80;;;;;;5074083;28;1484;-70
2022/01/09 13:12:23;;;;;;;;;;;21.10;54.80;;;;;;5074495;28;1333;-70
2022/01/09 13:14:48;;;;;;;;;;;21.10;54.80;;;;;;5074417;28;1671;-70
2022/01/09 13:17:13;;;;;;;;;;;21.10;54.80;;;;;;5074484;28;1953;-70
2022/01/09 13:19:39;;;;;;;;;;;21.10;54.90;;;;;;5074374;28;976;-70
2022/01/09 13:22:06;;;;;;;;;;;21.10;54.90;;;;;;5075603;28;1676;-70
2022/01/09 13:24:32;;;;;;;;;;;21.10;54.90;;;;;;5075151;28;1657;-70
2022/01/09 13:26:58;;;;;;;;;;;21.10;54.90;;;;;;5073902;28;1575;-70
2022/01/09 13:29:24;;;;;;;;;;;21.10;55.00;;;;;;5073808;28;1679;-70
2022/01/09 13:31:49;;;;;;;;;;;21.10;55.10;;;;;;5074032;28;1650;-71
2022/01/09 13:34:15;;;;;;;;;;;21.10;55.10;;;;;;5073365;28;1816;-71
2022/01/09 13:36:45;;;;;;;;;;;21.10;55.10;;;;;;5066041;28;1957;-70
2022/01/09 13:39:18;;;;;;;;;;;21.00;55.10;;;;;;5074609;28;1332;-70
2022/01/09 13:41:58;;;;;;;;;;;21.00;55.10;;;;;;5072905;28;1367;-70
2022/01/09 13:44:28;;;;;;;;;;;21.00;55.20;;;;;;5073125;28;1298;-70
2022/01/09 13:46:59;;;;;;;;;;;21.00;55.20;;;;;;5073042;28;1405;-70
2022/01/09 13:49:25;;;;;;;;;;;21.00;55.30;;;;;;5074628;28;1203;-71
2022/01/09 13:51:50;;;;;;;;;;;20.90;55.20;;;;;;5074598;28;1646;-70
2022/01/09 13:54:17;;;;;;;;;;;20.90;55.30;;;;;;5073338;28;1668;-70
2022/01/09 13:56:43;;;;;;;;;;;20.90;55.30;;;;;;5074051;28;1894;-70
2022/01/09 13:59:08;;;;;;;;;;;20.90;55.40;;;;;;5073292;28;1383;-70
2022/01/09 14:01:38;;;;;;;;;;;20.80;55.40;;;;;;5066575;28;1661;-71
2022/01/09 14:04:13;;;;;;;;;;;20.80;55.50;;;;;;5066787;28;1393;-70
2022/01/09 14:06:39;;;;;;;;;;;20.80;55.50;;;;;;5072560;28;1382;-70
2022/01/09 14:09:05;;;;;;;;;;;20.80;55.60;;;;;;5073097;28;1259;-70
2022/01/09 14:11:31;;;;;;;;;;;20.80;55.60;;;;;;5072582;28;1317;-70
2022/01/09 14:13:56;;;;;;;;;;;20.80;55.60;;;;;;5073072;28;1365;-70
2022/01/09 14:16:21;;;;;;;;;;;20.80;55.60;;;;;;5072782;28;1914;-70
2022/01/09 14:18:56;;;;;;;;;;;20.80;55.60;;;;;;5073870;28;1184;-70
2022/01/09 14:21:21;;;;;;;;;;;20.80;55.70;;;;;;5072520;28;1640;-70
2022/01/09 14:23:47;;;;;;;;;;;20.80;56.20;;;;;;5072874;28;1333;-70
2022/01/09 14:26:13;;;;;;;;;;;20.70;56.00;;;;;;5073973;28;1362;-70
2022/01/09 14:28:39;;;;;;;;;;;20.70;56.00;;;;;;5072509;28;1497;-69
2022/01/09 14:31:05;;;;;;;;;;;20.70;56.00;;;;;;5072311;28;1767;-71